Terminal Aerodrome Forecast
Issued by NWS Portland, OR

Home | Current Version | Previous Version | Text Only | Print | Product List | Glossary On
Versions: 1 2 3 4 5 6 7 8 9 10 11 12 13 14 15 16 17 18 19 20 21 22 23 24 25 26 27 28 29 30 31 32 33 34
000
FTUS46 KPQR 282332
TAFHIO
TAF
KHIO 282332Z 2900/2924 19014KT P6SM OVC060
     FM290400 18009KT P6SM -RA SCT025 OVC040
     FM290700 16010KT 5SM -RA BR OVC025
     FM291200 17012KT 4SM -RA BR SCT008 OVC016
     FM291800 19012G20KT P6SM -SHRA SCT015 BKN025 OVC040=

USA.gov is the U.S. government's official web portal to all federal, state and local government web resources and services.